Courtenay, Canada
Current Conditions -  °F | °C
As of 4:00 PM on Wednesday 22 Oct 2014 (Local Time) from CYQQ Reporting Station
Overcast Overcast  
Wind Chill: 54°   Ceiling: 5600
Heat Index: 54°   Visibility: 20mi
Dew Point: 52°   Wind: 13mph
Humidity: 94%   Direction: 140°SE
Pressure: 29.55"   Gusts: NA
Location:  49.69°N, 124.99°W
Report Text: CYQQ 222300Z 14011KT 20SM FEW007 BKN056 OVC110 12/11 A2955 RMK SF2SC3AC3 SLP007
Loading
Personal Weather Stations






























Interactive Weather Map
Tropical Storm Tracking
New forecast layout! Learn more

10-Day Weather Forecast

Advertisements
Track Severe Weather on mobile